Buoy 51523

sailwx.info

Track history (hours):
 
Tides and Currents Weather Stations Pressure Air Temp Water Temp Dewpoint Dewpoint Depression Visibility Wind Speed Wind Dir Waves Ship Positions

Drifting buoy 51523

Last reported at 2016-Oct-04 20:30 UTC. Time now 2016-Dec-07 22:16 UTC.
Position N 24°20' E 124°11'.
Warning: this ship's position is months out of date.

Water temperature 25.5 ° C

Date/timePositionNaut miles runAvg speedWind from/ knotsBaromVisibWave heightAir tempDewpointWater temp
2016-Oct-04 20:30N 24°20' E 124°11'0 0.0 25.5
2016-Oct-04 19:15N 24°20' E 124°11'0 0.0 25.2
2016-Oct-04 19:00N 24°20' E 124°11'0 0.0 25.2
2016-Oct-04 13:30N 24°20' E 124°11'0 0.0 26.1
2016-Oct-04 12:45N 24°20' E 124°11'0 0.0 26.1
2016-Oct-04 12:30N 24°20' E 124°11'0 0.0 26.3
2016-Oct-04 11:45N 24°20' E 124°11'0 0.0 26.4
2016-Oct-04 10:00N 24°20' E 124°11'0 0.0 27.2
2016-Oct-04 09:30N 24°20' E 124°11'0 0.0 27.6
2016-Oct-04 01:30N 24°20' E 124°11'0 0.0 28.1
2016-Oct-03 21:45N 24°20' E 124°11'1 1.1 27.1
2016-Oct-03 21:15N 24°20' E 124°12'0 0.0 27.1
2016-Oct-03 21:00N 24°20' E 124°12'1 0.6 27.1
2016-Oct-03 19:15N 24°20' E 124°11'0 0.0 27.1
2016-Oct-03 17:45N 24°20' E 124°11'0 0.0 27.1
2016-Oct-03 13:45N 24°20' E 124°11'0 0.0 27.2
2016-Oct-03 13:00N 24°20' E 124°11'0 0.0 27.2
2016-Oct-03 10:00N 24°20' E 124°11'0 0.0 27.8
2016-Oct-03 09:15N 24°20' E 124°11'0 0.0 28.2
2016-Oct-03 08:45N 24°20' E 124°11'0 0.0 28.3
2016-Oct-03 06:45N 24°20' E 124°11'0 0.0 29.8
2016-Oct-03 05:15N 24°20' E 124°11'0 0.0 30.0
2016-Oct-03 05:00N 24°20' E 124°11'0 0.0 29.9
2016-Oct-02 22:00N 24°20' E 124°11'0 0.0 26.4
2016-Oct-02 21:45N 24°20' E 124°11'0 0.0 26.4
2016-Oct-02 21:30N 24°20' E 124°11'0 0.0 26.5
2016-Oct-02 19:30N 24°20' E 124°11'0 0.0 26.5
2016-Oct-02 13:15N 24°20' E 124°11'0 0.0 26.7
2016-Oct-02 12:30N 24°20' E 124°11'1 0.3 26.9
2016-Oct-02 09:30N 24°20' E 124°12'0 0.0 29.5
2016-Oct-02 09:15N 24°20' E 124°12'0 0.0 29.7
2016-Oct-02 09:00N 24°20' E 124°12'0 0.0 29.8
2016-Oct-02 05:15N 24°20' E 124°12'0 0.0 32.0
2016-Oct-01 22:15N 24°20' E 124°12'0 0.0 27.1
2016-Oct-01 22:00N 24°20' E 124°12'0 0.0 27.1
2016-Oct-01 20:30N 24°20' E 124°12'0 0.0 26.9
2016-Oct-01 19:45N 24°20' E 124°12'0 0.0 27.0
2016-Oct-01 18:00N 24°20' E 124°12'0 0.0 27.3
2016-Oct-01 12:45N 24°20' E 124°12'0 0.0 27.9
2016-Oct-01 12:00N 24°20' E 124°12'0 0.0 28.1
2016-Oct-01 05:30N 24°20' E 124°12'0 0.0 30.5
2016-Oct-01 01:30N 24°20' E 124°12'0 0.0 29.8
2016-Oct-01 00:45N 24°20' E 124°12'0 0.0 29.4
2016-Sep-30 22:15N 24°20' E 124°12'0 0.0 27.1
2016-Sep-30 21:00N 24°20' E 124°12'0 0.0 27.2
2016-Sep-30 20:45N 24°20' E 124°12'0 0.0 27.2
2016-Sep-30 18:15N 24°20' E 124°12'1 0.1 27.0
2016-Sep-30 13:15N 24°20' E 124°11'0 0.0 27.9
2016-Sep-30 13:00N 24°20' E 124°11'0 0.0 27.9
2016-Sep-30 10:00N 24°20' E 124°11'0 0.7 28.4
2016-Sep-30 09:45N 24°20' E 124°11'0 0.0 28.5
2016-Sep-30 08:15N 24°20' E 124°11'0 0.0 29.2
2016-Sep-30 05:45N 24°20' E 124°11'0 0.0 27.8
2016-Sep-30 05:30N 24°20' E 124°11'1 0.1 29.8
2016-Sep-30 02:00N 24°20' E 124°12'1 1.0 29.6
2016-Sep-30 01:15N 24°20' E 124°11'0 0.0 28.9
2016-Sep-30 01:00N 24°20' E 124°11'0 0.1 28.7
2016-Sep-29 21:30N 24°20' E 124°11'0 0.3 26.9
2016-Sep-29 21:15N 24°20' E 124°11'0 0.0 26.9
2016-Sep-29 12:45N 24°20' E 124°11'0 0.0 27.6
2016-Sep-29 11:45N 24°20' E 124°11'0 0.0 27.7
2016-Sep-29 06:00N 24°20' E 124°11'0 1.8 29.7
2016-Sep-29 05:45N 24°20' E 124°11'0 0.0 29.8
2016-Sep-29 01:30N 24°20' E 124°11'0 0.0 30.6
2016-Sep-28 21:30N 24°20' E 124°11'0 0.2 27.0
2016-Sep-28 21:15N 24°20' E 124°11'0 0.0 27.0
2016-Sep-28 18:45N 24°20' E 124°11'0 0.0 27.2
2016-Sep-28 18:30N 24°20' E 124°11'0 0.0 27.2
2016-Sep-28 13:45N 24°20' E 124°11'0 0.0 27.4
2016-Sep-28 09:15N 24°20' E 124°11'0 0.0 28.1
2016-Sep-27 22:00N 24°20' E 124°11'0 0.0 27.4
2016-Sep-27 20:45N 24°20' E 124°11'0 0.0 27.4
2016-Sep-27 18:45N 24°20' E 124°11'0 0.0 27.4
2016-Sep-27 12:30N 24°20' E 124°11'0 0.0 27.1
2016-Sep-27 09:45N 24°20' E 124°11'0 0.0 27.6
2016-Sep-27 08:45N 24°20' E 124°11'0 0.0 27.8
2016-Sep-27 06:15N 24°20' E 124°11'0 0.0 27.2
2016-Sep-27 01:15N 24°20' E 124°11'0 0.0 25.5
2016-Sep-26 21:30N 24°20' E 124°11'0 0.0 26.0
2016-Sep-26 21:15N 24°20' E 124°11'0 0.0 26.0
2016-Sep-26 19:00N 24°20' E 124°11'0 0.0 26.4
2016-Sep-26 12:45N 24°20' E 124°11'0 0.0 27.6
2016-Sep-26 10:15N 24°20' E 124°11'0 0.0 28.8
2016-Sep-26 06:30N 24°20' E 124°11'0 0.0 29.0
2016-Sep-26 01:30N 24°20' E 124°11'0 0.0 29.7
2016-Sep-26 00:45N 24°20' E 124°11'0 0.1 29.5
2016-Sep-25 21:45N 24°20' E 124°11'0 0.0 27.9
2016-Sep-25 21:30N 24°20' E 124°11'0 0.2 27.9
2016-Sep-25 21:15N 24°20' E 124°11'0 0.0 27.9
2016-Sep-25 17:30N 24°20' E 124°11'0 0.0 28.0
2016-Sep-25 12:30N 24°20' E 124°11'0 0.0 28.3
2016-Sep-25 12:15N 24°20' E 124°11'0 0.0 28.3
2016-Sep-25 10:30N 24°20' E 124°11'0 0.0 28.8
2016-Sep-25 08:45N 24°20' E 124°11'0 0.0 29.7
2016-Sep-25 06:30N 24°20' E 124°11'0 0.0 31.2
2016-Sep-25 05:00N 24°20' E 124°11'0 0.0 31.6
2016-Sep-24 22:30N 24°20' E 124°11'0 0.0 26.5
2016-Sep-24 22:00N 24°20' E 124°11'0 0.9 26.0
2016-Sep-24 21:45N 24°20' E 124°11'1 2.1 26.0
2016-Sep-24 21:30N 24°20' E 124°12'0 0.1 25.9
2016-Sep-24 20:45N 24°20' E 124°12'   25.7
Track history (hours):
 
Tides and Currents Weather Stations Pressure Air Temp Water Temp Dewpoint Dewpoint Depression Visibility Wind Speed Wind Dir Waves Ship Positions

Drifting buoy 51523

Last reported at 2016-Oct-04 20:30 UTC. Time now 2016-Dec-07 22:16 UTC.
Position N 24°20' E 124°11'.
Warning: this ship's position is months out of date.

Water temperature 25.5 ° C

Date/timePositionNaut miles runAvg speedWind from/ knotsBaromVisibWave heightAir tempDewpointWater temp
2016-Oct-04 20:30N 24°20' E 124°11'0 0.0 25.5
2016-Oct-04 19:15N 24°20' E 124°11'0 0.0 25.2
2016-Oct-04 19:00N 24°20' E 124°11'0 0.0 25.2
2016-Oct-04 13:30N 24°20' E 124°11'0 0.0 26.1
2016-Oct-04 12:45N 24°20' E 124°11'0 0.0 26.1
2016-Oct-04 12:30N 24°20' E 124°11'0 0.0 26.3
2016-Oct-04 11:45N 24°20' E 124°11'0 0.0 26.4
2016-Oct-04 10:00N 24°20' E 124°11'0 0.0 27.2
2016-Oct-04 09:30N 24°20' E 124°11'0 0.0 27.6
2016-Oct-04 01:30N 24°20' E 124°11'0 0.0 28.1
2016-Oct-03 21:45N 24°20' E 124°11'1 1.1 27.1
2016-Oct-03 21:15N 24°20' E 124°12'0 0.0 27.1
2016-Oct-03 21:00N 24°20' E 124°12'1 0.6 27.1
2016-Oct-03 19:15N 24°20' E 124°11'0 0.0 27.1
2016-Oct-03 17:45N 24°20' E 124°11'0 0.0 27.1
2016-Oct-03 13:45N 24°20' E 124°11'0 0.0 27.2
2016-Oct-03 13:00N 24°20' E 124°11'0 0.0 27.2
2016-Oct-03 10:00N 24°20' E 124°11'0 0.0 27.8
2016-Oct-03 09:15N 24°20' E 124°11'0 0.0 28.2
2016-Oct-03 08:45N 24°20' E 124°11'0 0.0 28.3
2016-Oct-03 06:45N 24°20' E 124°11'0 0.0 29.8
2016-Oct-03 05:15N 24°20' E 124°11'0 0.0 30.0
2016-Oct-03 05:00N 24°20' E 124°11'0 0.0 29.9
2016-Oct-02 22:00N 24°20' E 124°11'0 0.0 26.4
2016-Oct-02 21:45N 24°20' E 124°11'0 0.0 26.4
2016-Oct-02 21:30N 24°20' E 124°11'0 0.0 26.5
2016-Oct-02 19:30N 24°20' E 124°11'0 0.0 26.5
2016-Oct-02 13:15N 24°20' E 124°11'0 0.0 26.7
2016-Oct-02 12:30N 24°20' E 124°11'1 0.3 26.9
2016-Oct-02 09:30N 24°20' E 124°12'0 0.0 29.5
2016-Oct-02 09:15N 24°20' E 124°12'0 0.0 29.7
2016-Oct-02 09:00N 24°20' E 124°12'0 0.0 29.8
2016-Oct-02 05:15N 24°20' E 124°12'0 0.0 32.0
2016-Oct-01 22:15N 24°20' E 124°12'0 0.0 27.1
2016-Oct-01 22:00N 24°20' E 124°12'0 0.0 27.1
2016-Oct-01 20:30N 24°20' E 124°12'0 0.0 26.9
2016-Oct-01 19:45N 24°20' E 124°12'0 0.0 27.0
2016-Oct-01 18:00N 24°20' E 124°12'0 0.0 27.3
2016-Oct-01 12:45N 24°20' E 124°12'0 0.0 27.9
2016-Oct-01 12:00N 24°20' E 124°12'0 0.0 28.1
2016-Oct-01 05:30N 24°20' E 124°12'0 0.0 30.5
2016-Oct-01 01:30N 24°20' E 124°12'0 0.0 29.8
2016-Oct-01 00:45N 24°20' E 124°12'0 0.0 29.4
2016-Sep-30 22:15N 24°20' E 124°12'0 0.0 27.1
2016-Sep-30 21:00N 24°20' E 124°12'0 0.0 27.2
2016-Sep-30 20:45N 24°20' E 124°12'0 0.0 27.2
2016-Sep-30 18:15N 24°20' E 124°12'1 0.1 27.0
2016-Sep-30 13:15N 24°20' E 124°11'0 0.0 27.9
2016-Sep-30 13:00N 24°20' E 124°11'0 0.0 27.9
2016-Sep-30 10:00N 24°20' E 124°11'0 0.7 28.4
2016-Sep-30 09:45N 24°20' E 124°11'0 0.0 28.5
2016-Sep-30 08:15N 24°20' E 124°11'0 0.0 29.2
2016-Sep-30 05:45N 24°20' E 124°11'0 0.0 27.8
2016-Sep-30 05:30N 24°20' E 124°11'1 0.1 29.8
2016-Sep-30 02:00N 24°20' E 124°12'1 1.0 29.6
2016-Sep-30 01:15N 24°20' E 124°11'0 0.0 28.9
2016-Sep-30 01:00N 24°20' E 124°11'0 0.1 28.7
2016-Sep-29 21:30N 24°20' E 124°11'0 0.3 26.9
2016-Sep-29 21:15N 24°20' E 124°11'0 0.0 26.9
2016-Sep-29 12:45N 24°20' E 124°11'0 0.0 27.6
2016-Sep-29 11:45N 24°20' E 124°11'0 0.0 27.7
2016-Sep-29 06:00N 24°20' E 124°11'0 1.8 29.7
2016-Sep-29 05:45N 24°20' E 124°11'0 0.0 29.8
2016-Sep-29 01:30N 24°20' E 124°11'0 0.0 30.6
2016-Sep-28 21:30N 24°20' E 124°11'0 0.2 27.0
2016-Sep-28 21:15N 24°20' E 124°11'0 0.0 27.0
2016-Sep-28 18:45N 24°20' E 124°11'0 0.0 27.2
2016-Sep-28 18:30N 24°20' E 124°11'0 0.0 27.2
2016-Sep-28 13:45N 24°20' E 124°11'0 0.0 27.4
2016-Sep-28 09:15N 24°20' E 124°11'0 0.0 28.1
2016-Sep-27 22:00N 24°20' E 124°11'0 0.0 27.4
2016-Sep-27 20:45N 24°20' E 124°11'0 0.0 27.4
2016-Sep-27 18:45N 24°20' E 124°11'0 0.0 27.4
2016-Sep-27 12:30N 24°20' E 124°11'0 0.0 27.1
2016-Sep-27 09:45N 24°20' E 124°11'0 0.0 27.6
2016-Sep-27 08:45N 24°20' E 124°11'0 0.0 27.8
2016-Sep-27 06:15N 24°20' E 124°11'0 0.0 27.2
2016-Sep-27 01:15N 24°20' E 124°11'0 0.0 25.5
2016-Sep-26 21:30N 24°20' E 124°11'0 0.0 26.0
2016-Sep-26 21:15N 24°20' E 124°11'0 0.0 26.0
2016-Sep-26 19:00N 24°20' E 124°11'0 0.0 26.4
2016-Sep-26 12:45N 24°20' E 124°11'0 0.0 27.6
2016-Sep-26 10:15N 24°20' E 124°11'0 0.0 28.8
2016-Sep-26 06:30N 24°20' E 124°11'0 0.0 29.0
2016-Sep-26 01:30N 24°20' E 124°11'0 0.0 29.7
2016-Sep-26 00:45N 24°20' E 124°11'0 0.1 29.5
2016-Sep-25 21:45N 24°20' E 124°11'0 0.0 27.9
2016-Sep-25 21:30N 24°20' E 124°11'0 0.2 27.9
2016-Sep-25 21:15N 24°20' E 124°11'0 0.0 27.9
2016-Sep-25 17:30N 24°20' E 124°11'0 0.0 28.0
2016-Sep-25 12:30N 24°20' E 124°11'0 0.0 28.3
2016-Sep-25 12:15N 24°20' E 124°11'0 0.0 28.3
2016-Sep-25 10:30N 24°20' E 124°11'0 0.0 28.8
2016-Sep-25 08:45N 24°20' E 124°11'0 0.0 29.7
2016-Sep-25 06:30N 24°20' E 124°11'0 0.0 31.2
2016-Sep-25 05:00N 24°20' E 124°11'0 0.0 31.6
2016-Sep-24 22:30N 24°20' E 124°11'0 0.0 26.5
2016-Sep-24 22:00N 24°20' E 124°11'0 0.9 26.0
2016-Sep-24 21:45N 24°20' E 124°11'1 2.1 26.0
2016-Sep-24 21:30N 24°20' E 124°12'0 0.1 25.9
2016-Sep-24 20:45N 24°20' E 124°12'   25.7

Dump ship's entire track history